sensor_id;sensor_type;location;lat;lon;timestamp;P1;durP1;ratioP1;P2;durP2;ratioP2
43664;SDS011;29263;48.172;11.484;2022-07-17T00:00:51;4.20;;;2.22;;
43664;SDS011;29263;48.172;11.484;2022-07-17T00:03:17;4.72;;;2.05;;
43664;SDS011;29263;48.172;11.484;2022-07-17T00:05:43;3.25;;;2.10;;
43664;SDS011;29263;48.172;11.484;2022-07-17T00:08:10;4.60;;;2.20;;
43664;SDS011;29263;48.172;11.484;2022-07-17T00:10:37;3.75;;;2.22;;
43664;SDS011;29263;48.172;11.484;2022-07-17T00:13:04;3.80;;;2.00;;
43664;SDS011;29263;48.172;11.484;2022-07-17T00:15:30;2.67;;;1.98;;
43664;SDS011;29263;48.172;11.484;2022-07-17T00:17:56;3.05;;;1.90;;
43664;SDS011;29263;48.172;11.484;2022-07-17T00:20:22;5.53;;;2.10;;
43664;SDS011;29263;48.172;11.484;2022-07-17T00:22:50;6.60;;;2.13;;
43664;SDS011;29263;48.172;11.484;2022-07-17T00:28:03;3.38;;;2.22;;
43664;SDS011;29263;48.172;11.484;2022-07-17T00:30:29;5.07;;;2.35;;
43664;SDS011;29263;48.172;11.484;2022-07-17T00:32:55;6.90;;;2.72;;
43664;SDS011;29263;48.172;11.484;2022-07-17T00:35:20;2.95;;;1.85;;
43664;SDS011;29263;48.172;11.484;2022-07-17T00:37:47;3.75;;;2.10;;
43664;SDS011;29263;48.172;11.484;2022-07-17T00:40:16;4.30;;;2.30;;
43664;SDS011;29263;48.172;11.484;2022-07-17T00:42:44;4.93;;;2.35;;
43664;SDS011;29263;48.172;11.484;2022-07-17T00:50:40;4.28;;;2.40;;
43664;SDS011;29263;48.172;11.484;2022-07-17T00:53:07;2.20;;;1.88;;
43664;SDS011;29263;48.172;11.484;2022-07-17T00:55:35;3.40;;;2.40;;
43664;SDS011;29263;48.172;11.484;2022-07-17T00:58:02;4.03;;;2.72;;
43664;SDS011;29263;48.172;11.484;2022-07-17T01:00:29;5.78;;;3.15;;
43664;SDS011;29263;48.172;11.484;2022-07-17T01:02:55;7.00;;;2.65;;
43664;SDS011;29263;48.172;11.484;2022-07-17T01:05:22;4.03;;;2.50;;
43664;SDS011;29263;48.172;11.484;2022-07-17T01:07:48;4.05;;;2.50;;
43664;SDS011;29263;48.172;11.484;2022-07-17T01:12:58;3.88;;;2.88;;
43664;SDS011;29263;48.172;11.484;2022-07-17T01:15:23;4.82;;;3.10;;
43664;SDS011;29263;48.172;11.484;2022-07-17T01:17:49;5.45;;;2.92;;
43664;SDS011;29263;48.172;11.484;2022-07-17T01:20:15;4.13;;;2.80;;
43664;SDS011;29263;48.172;11.484;2022-07-17T01:25:12;9.32;;;3.00;;
43664;SDS011;29263;48.172;11.484;2022-07-17T01:27:39;7.07;;;3.25;;
43664;SDS011;29263;48.172;11.484;2022-07-17T01:30:06;4.25;;;2.60;;
43664;SDS011;29263;48.172;11.484;2022-07-17T01:32:33;5.63;;;3.00;;
43664;SDS011;29263;48.172;11.484;2022-07-17T01:35:00;4.63;;;2.92;;
43664;SDS011;29263;48.172;11.484;2022-07-17T01:40:29;6.50;;;2.85;;
43664;SDS011;29263;48.172;11.484;2022-07-17T01:42:55;4.20;;;2.67;;
43664;SDS011;29263;48.172;11.484;2022-07-17T01:45:21;4.38;;;2.72;;
43664;SDS011;29263;48.172;11.484;2022-07-17T01:47:46;3.75;;;2.40;;
43664;SDS011;29263;48.172;11.484;2022-07-17T01:50:12;5.60;;;2.78;;
43664;SDS011;29263;48.172;11.484;2022-07-17T01:52:39;3.08;;;2.45;;
43664;SDS011;29263;48.172;11.484;2022-07-17T01:55:07;6.18;;;2.88;;
43664;SDS011;29263;48.172;11.484;2022-07-17T01:57:34;5.68;;;2.85;;
43664;SDS011;29263;48.172;11.484;2022-07-17T02:00:00;4.45;;;2.70;;
43664;SDS011;29263;48.172;11.484;2022-07-17T02:02:29;5.00;;;3.25;;
43664;SDS011;29263;48.172;11.484;2022-07-17T02:04:54;3.83;;;2.80;;
43664;SDS011;29263;48.172;11.484;2022-07-17T02:07:20;3.72;;;2.80;;
43664;SDS011;29263;48.172;11.484;2022-07-17T02:09:46;4.45;;;3.22;;
43664;SDS011;29263;48.172;11.484;2022-07-17T02:12:11;3.80;;;2.50;;
43664;SDS011;29263;48.172;11.484;2022-07-17T02:14:37;4.20;;;2.50;;
43664;SDS011;29263;48.172;11.484;2022-07-17T02:17:03;4.07;;;2.78;;
43664;SDS011;29263;48.172;11.484;2022-07-17T02:19:28;5.88;;;2.85;;
43664;SDS011;29263;48.172;11.484;2022-07-17T02:21:54;4.47;;;2.80;;
43664;SDS011;29263;48.172;11.484;2022-07-17T02:24:20;5.47;;;2.78;;
43664;SDS011;29263;48.172;11.484;2022-07-17T02:26:46;4.22;;;3.00;;
43664;SDS011;29263;48.172;11.484;2022-07-17T02:29:11;6.20;;;2.60;;
43664;SDS011;29263;48.172;11.484;2022-07-17T02:31:37;3.35;;;2.40;;
43664;SDS011;29263;48.172;11.484;2022-07-17T02:34:03;3.47;;;2.90;;
43664;SDS011;29263;48.172;11.484;2022-07-17T02:36:28;8.02;;;2.67;;
43664;SDS011;29263;48.172;11.484;2022-07-17T02:38:54;6.38;;;2.58;;
43664;SDS011;29263;48.172;11.484;2022-07-17T02:41:20;4.25;;;2.50;;
43664;SDS011;29263;48.172;11.484;2022-07-17T02:43:45;5.10;;;2.47;;
43664;SDS011;29263;48.172;11.484;2022-07-17T02:46:11;4.72;;;2.78;;
43664;SDS011;29263;48.172;11.484;2022-07-17T02:48:38;5.82;;;3.25;;
43664;SDS011;29263;48.172;11.484;2022-07-17T02:51:05;3.67;;;2.60;;
43664;SDS011;29263;48.172;11.484;2022-07-17T02:53:31;6.53;;;3.63;;
43664;SDS011;29263;48.172;11.484;2022-07-17T02:55:57;5.18;;;2.75;;
43664;SDS011;29263;48.172;11.484;2022-07-17T02:58:23;5.20;;;2.78;;
43664;SDS011;29263;48.172;11.484;2022-07-17T03:00:48;3.53;;;2.57;;
43664;SDS011;29263;48.172;11.484;2022-07-17T03:03:14;5.60;;;2.80;;
43664;SDS011;29263;48.172;11.484;2022-07-17T03:05:40;6.20;;;2.80;;
43664;SDS011;29263;48.172;11.484;2022-07-17T03:08:05;3.85;;;2.78;;
43664;SDS011;29263;48.172;11.484;2022-07-17T03:10:31;5.45;;;3.00;;
43664;SDS011;29263;48.172;11.484;2022-07-17T03:12:57;4.30;;;2.80;;
43664;SDS011;29263;48.172;11.484;2022-07-17T03:15:23;4.05;;;2.70;;
43664;SDS011;29263;48.172;11.484;2022-07-17T03:17:49;6.40;;;3.20;;
43664;SDS011;29263;48.172;11.484;2022-07-17T03:20:14;2.72;;;2.35;;
43664;SDS011;29263;48.172;11.484;2022-07-17T03:22:40;5.45;;;2.80;;
43664;SDS011;29263;48.172;11.484;2022-07-17T03:25:06;4.10;;;2.73;;
43664;SDS011;29263;48.172;11.484;2022-07-17T03:27:32;5.35;;;2.78;;
43664;SDS011;29263;48.172;11.484;2022-07-17T03:29:58;4.93;;;3.07;;
43664;SDS011;29263;48.172;11.484;2022-07-17T03:32:24;3.10;;;2.50;;
43664;SDS011;29263;48.172;11.484;2022-07-17T03:34:49;4.53;;;2.63;;
43664;SDS011;29263;48.172;11.484;2022-07-17T03:37:15;4.63;;;2.90;;
43664;SDS011;29263;48.172;11.484;2022-07-17T03:39:41;6.00;;;2.70;;
43664;SDS011;29263;48.172;11.484;2022-07-17T03:42:07;7.30;;;3.03;;
43664;SDS011;29263;48.172;11.484;2022-07-17T03:44:32;7.97;;;2.87;;
43664;SDS011;29263;48.172;11.484;2022-07-17T03:46:58;4.22;;;2.88;;
43664;SDS011;29263;48.172;11.484;2022-07-17T04:30:49;4.10;;;2.65;;
43664;SDS011;29263;48.172;11.484;2022-07-17T04:38:26;7.15;;;2.75;;
43664;SDS011;29263;48.172;11.484;2022-07-17T04:40:52;4.53;;;2.90;;
43664;SDS011;29263;48.172;11.484;2022-07-17T04:43:17;4.63;;;2.92;;
43664;SDS011;29263;48.172;11.484;2022-07-17T04:45:43;3.55;;;2.67;;
43664;SDS011;29263;48.172;11.484;2022-07-17T04:48:08;4.07;;;2.88;;
43664;SDS011;29263;48.172;11.484;2022-07-17T04:50:34;4.32;;;2.75;;
43664;SDS011;29263;48.172;11.484;2022-07-17T04:53:00;5.75;;;2.90;;
43664;SDS011;29263;48.172;11.484;2022-07-17T04:55:26;3.13;;;2.45;;
43664;SDS011;29263;48.172;11.484;2022-07-17T04:57:52;3.70;;;3.00;;
43664;SDS011;29263;48.172;11.484;2022-07-17T05:00:19;4.25;;;3.00;;
43664;SDS011;29263;48.172;11.484;2022-07-17T05:02:45;6.93;;;2.60;;
43664;SDS011;29263;48.172;11.484;2022-07-17T05:05:11;4.18;;;2.78;;
43664;SDS011;29263;48.172;11.484;2022-07-17T05:07:36;3.70;;;2.80;;
43664;SDS011;29263;48.172;11.484;2022-07-17T05:10:02;4.43;;;3.10;;
43664;SDS011;29263;48.172;11.484;2022-07-17T05:12:29;3.35;;;2.72;;
43664;SDS011;29263;48.172;11.484;2022-07-17T05:14:55;5.30;;;2.90;;
43664;SDS011;29263;48.172;11.484;2022-07-17T05:17:20;6.72;;;3.15;;
43664;SDS011;29263;48.172;11.484;2022-07-17T05:19:46;3.67;;;2.72;;
43664;SDS011;29263;48.172;11.484;2022-07-17T05:22:13;4.82;;;2.95;;
43664;SDS011;29263;48.172;11.484;2022-07-17T05:24:39;5.05;;;2.88;;
43664;SDS011;29263;48.172;11.484;2022-07-17T05:27:05;5.25;;;2.90;;
43664;SDS011;29263;48.172;11.484;2022-07-17T05:29:31;3.85;;;2.65;;
43664;SDS011;29263;48.172;11.484;2022-07-17T05:31:57;3.45;;;2.70;;
43664;SDS011;29263;48.172;11.484;2022-07-17T05:34:22;2.72;;;2.40;;
43664;SDS011;29263;48.172;11.484;2022-07-17T05:36:48;4.18;;;2.67;;
43664;SDS011;29263;48.172;11.484;2022-07-17T05:39:14;3.13;;;2.40;;
43664;SDS011;29263;48.172;11.484;2022-07-17T05:41:40;4.20;;;2.83;;
43664;SDS011;29263;48.172;11.484;2022-07-17T05:44:05;3.72;;;2.67;;
43664;SDS011;29263;48.172;11.484;2022-07-17T05:46:31;3.97;;;2.15;;
43664;SDS011;29263;48.172;11.484;2022-07-17T05:48:57;2.80;;;2.30;;
43664;SDS011;29263;48.172;11.484;2022-07-17T05:51:27;6.32;;;2.22;;
43664;SDS011;29263;48.172;11.484;2022-07-17T05:53:54;4.65;;;2.78;;
43664;SDS011;29263;48.172;11.484;2022-07-17T05:56:20;4.50;;;2.60;;
43664;SDS011;29263;48.172;11.484;2022-07-17T05:58:45;2.88;;;1.95;;
43664;SDS011;29263;48.172;11.484;2022-07-17T06:01:11;6.70;;;2.25;;
43664;SDS011;29263;48.172;11.484;2022-07-17T06:07:15;4.20;;;1.70;;
43664;SDS011;29263;48.172;11.484;2022-07-17T06:09:40;3.58;;;2.22;;
43664;SDS011;29263;48.172;11.484;2022-07-17T06:12:06;6.18;;;2.13;;
43664;SDS011;29263;48.172;11.484;2022-07-17T06:14:32;5.38;;;2.20;;
43664;SDS011;29263;48.172;11.484;2022-07-17T06:16:57;9.00;;;2.63;;
43664;SDS011;29263;48.172;11.484;2022-07-17T06:19:23;2.88;;;1.80;;
43664;SDS011;29263;48.172;11.484;2022-07-17T06:21:49;3.42;;;2.33;;
43664;SDS011;29263;48.172;11.484;2022-07-17T06:24:15;1.58;;;1.27;;
43664;SDS011;29263;48.172;11.484;2022-07-17T06:26:40;2.95;;;1.80;;
43664;SDS011;29263;48.172;11.484;2022-07-17T06:29:06;4.93;;;1.50;;
43664;SDS011;29263;48.172;11.484;2022-07-17T06:31:32;5.45;;;1.58;;
43664;SDS011;29263;48.172;11.484;2022-07-17T06:33:57;3.25;;;1.40;;
43664;SDS011;29263;48.172;11.484;2022-07-17T06:36:23;2.33;;;1.45;;
43664;SDS011;29263;48.172;11.484;2022-07-17T06:38:49;2.83;;;1.40;;
43664;SDS011;29263;48.172;11.484;2022-07-17T06:41:14;4.50;;;1.30;;
43664;SDS011;29263;48.172;11.484;2022-07-17T06:43:40;3.83;;;1.35;;
43664;SDS011;29263;48.172;11.484;2022-07-17T06:46:06;3.03;;;1.65;;
43664;SDS011;29263;48.172;11.484;2022-07-17T06:48:31;1.98;;;1.23;;
43664;SDS011;29263;48.172;11.484;2022-07-17T06:50:57;2.22;;;1.10;;
43664;SDS011;29263;48.172;11.484;2022-07-17T06:53:23;2.25;;;1.30;;
43664;SDS011;29263;48.172;11.484;2022-07-17T06:55:48;3.35;;;1.48;;
43664;SDS011;29263;48.172;11.484;2022-07-17T06:58:14;3.85;;;1.52;;
43664;SDS011;29263;48.172;11.484;2022-07-17T07:00:40;2.05;;;1.20;;
43664;SDS011;29263;48.172;11.484;2022-07-17T07:03:07;5.60;;;1.38;;
43664;SDS011;29263;48.172;11.484;2022-07-17T07:05:33;1.95;;;1.08;;
43664;SDS011;29263;48.172;11.484;2022-07-17T07:07:59;1.35;;;1.10;;
43664;SDS011;29263;48.172;11.484;2022-07-17T07:10:25;2.60;;;1.30;;
43664;SDS011;29263;48.172;11.484;2022-07-17T07:12:51;3.30;;;1.35;;
43664;SDS011;29263;48.172;11.484;2022-07-17T07:15:17;3.50;;;1.33;;
43664;SDS011;29263;48.172;11.484;2022-07-17T07:17:42;3.05;;;1.42;;
43664;SDS011;29263;48.172;11.484;2022-07-17T07:20:29;2.60;;;1.20;;
43664;SDS011;29263;48.172;11.484;2022-07-17T07:22:55;3.05;;;1.30;;
43664;SDS011;29263;48.172;11.484;2022-07-17T07:25:28;8.20;;;1.23;;
43664;SDS011;29263;48.172;11.484;2022-07-17T07:27:54;6.38;;;1.20;;
43664;SDS011;29263;48.172;11.484;2022-07-17T07:30:19;4.35;;;1.27;;
43664;SDS011;29263;48.172;11.484;2022-07-17T07:32:45;3.38;;;1.20;;
43664;SDS011;29263;48.172;11.484;2022-07-17T07:35:31;2.00;;;1.20;;
43664;SDS011;29263;48.172;11.484;2022-07-17T07:38:16;1.75;;;1.17;;
43664;SDS011;29263;48.172;11.484;2022-07-17T07:40:42;2.38;;;1.30;;
43664;SDS011;29263;48.172;11.484;2022-07-17T07:43:13;2.00;;;1.10;;
43664;SDS011;29263;48.172;11.484;2022-07-17T07:46:02;2.38;;;1.38;;
43664;SDS011;29263;48.172;11.484;2022-07-17T07:48:28;1.50;;;0.90;;
43664;SDS011;29263;48.172;11.484;2022-07-17T07:50:54;4.20;;;0.98;;
43664;SDS011;29263;48.172;11.484;2022-07-17T07:53:20;3.10;;;1.17;;
43664;SDS011;29263;48.172;11.484;2022-07-17T07:55:46;2.72;;;1.13;;
43664;SDS011;29263;48.172;11.484;2022-07-17T07:58:13;1.27;;;1.10;;
43664;SDS011;29263;48.172;11.484;2022-07-17T08:04:16;1.20;;;0.88;;
43664;SDS011;29263;48.172;11.484;2022-07-17T08:06:42;2.55;;;0.90;;
43664;SDS011;29263;48.172;11.484;2022-07-17T08:09:13;3.78;;;1.10;;
43664;SDS011;29263;48.172;11.484;2022-07-17T08:21:51;1.15;;;0.98;;
43664;SDS011;29263;48.172;11.484;2022-07-17T08:25:14;3.60;;;0.93;;
43664;SDS011;29263;48.172;11.484;2022-07-17T08:27:40;3.13;;;1.15;;
43664;SDS011;29263;48.172;11.484;2022-07-17T08:30:08;2.25;;;1.00;;
43664;SDS011;29263;48.172;11.484;2022-07-17T08:32:35;1.00;;;0.70;;
43664;SDS011;29263;48.172;11.484;2022-07-17T08:35:02;3.90;;;0.98;;
43664;SDS011;29263;48.172;11.484;2022-07-17T08:37:28;1.58;;;1.05;;
43664;SDS011;29263;48.172;11.484;2022-07-17T08:39:54;1.15;;;1.00;;
43664;SDS011;29263;48.172;11.484;2022-07-17T08:42:20;4.20;;;1.15;;
43664;SDS011;29263;48.172;11.484;2022-07-17T08:44:46;2.05;;;1.05;;
43664;SDS011;29263;48.172;11.484;2022-07-17T08:47:12;1.75;;;1.00;;
43664;SDS011;29263;48.172;11.484;2022-07-17T08:49:45;3.25;;;1.08;;
43664;SDS011;29263;48.172;11.484;2022-07-17T08:52:14;1.63;;;0.93;;
43664;SDS011;29263;48.172;11.484;2022-07-17T08:54:40;2.25;;;1.10;;
43664;SDS011;29263;48.172;11.484;2022-07-17T08:57:06;1.45;;;1.05;;
43664;SDS011;29263;48.172;11.484;2022-07-17T08:59:32;2.17;;;1.30;;
43664;SDS011;29263;48.172;11.484;2022-07-17T09:02:16;1.75;;;1.00;;
43664;SDS011;29263;48.172;11.484;2022-07-17T09:05:00;2.85;;;0.88;;
43664;SDS011;29263;48.172;11.484;2022-07-17T09:07:26;2.28;;;1.10;;
43664;SDS011;29263;48.172;11.484;2022-07-17T09:09:52;1.88;;;0.93;;
43664;SDS011;29263;48.172;11.484;2022-07-17T09:12:25;2.63;;;1.10;;
43664;SDS011;29263;48.172;11.484;2022-07-17T09:14:52;1.40;;;0.90;;
43664;SDS011;29263;48.172;11.484;2022-07-17T09:17:18;2.17;;;1.10;;
43664;SDS011;29263;48.172;11.484;2022-07-17T09:19:45;1.55;;;1.00;;
43664;SDS011;29263;48.172;11.484;2022-07-17T09:24:51;2.53;;;1.10;;
43664;SDS011;29263;48.172;11.484;2022-07-17T09:30:08;1.08;;;0.80;;
43664;SDS011;29263;48.172;11.484;2022-07-17T09:33:18;3.63;;;0.80;;
43664;SDS011;29263;48.172;11.484;2022-07-17T09:35:48;2.10;;;0.75;;
43664;SDS011;29263;48.172;11.484;2022-07-17T09:38:28;4.20;;;1.10;;
43664;SDS011;29263;48.172;11.484;2022-07-17T09:43:58;1.97;;;0.80;;
43664;SDS011;29263;48.172;11.484;2022-07-17T09:46:27;1.60;;;0.98;;
43664;SDS011;29263;48.172;11.484;2022-07-17T09:48:58;1.95;;;0.90;;
43664;SDS011;29263;48.172;11.484;2022-07-17T09:51:27;2.60;;;0.82;;
43664;SDS011;29263;48.172;11.484;2022-07-17T09:53:56;1.38;;;0.80;;
43664;SDS011;29263;48.172;11.484;2022-07-17T09:56:23;2.10;;;1.13;;
43664;SDS011;29263;48.172;11.484;2022-07-17T09:58:52;3.90;;;1.17;;
43664;SDS011;29263;48.172;11.484;2022-07-17T10:01:19;1.52;;;1.02;;
43664;SDS011;29263;48.172;11.484;2022-07-17T10:03:46;2.00;;;1.08;;
43664;SDS011;29263;48.172;11.484;2022-07-17T10:06:14;2.30;;;1.08;;
43664;SDS011;29263;48.172;11.484;2022-07-17T10:08:40;1.20;;;0.90;;
43664;SDS011;29263;48.172;11.484;2022-07-17T10:11:06;2.05;;;1.10;;
43664;SDS011;29263;48.172;11.484;2022-07-17T10:13:34;1.70;;;1.00;;
43664;SDS011;29263;48.172;11.484;2022-07-17T10:16:03;2.33;;;1.10;;
43664;SDS011;29263;48.172;11.484;2022-07-17T10:18:41;1.65;;;0.90;;
43664;SDS011;29263;48.172;11.484;2022-07-17T10:23:42;1.13;;;0.77;;
43664;SDS011;29263;48.172;11.484;2022-07-17T10:26:08;3.28;;;1.00;;
43664;SDS011;29263;48.172;11.484;2022-07-17T10:28:45;1.50;;;0.90;;
43664;SDS011;29263;48.172;11.484;2022-07-17T10:31:24;1.08;;;0.90;;
43664;SDS011;29263;48.172;11.484;2022-07-17T10:34:01;2.03;;;0.75;;
43664;SDS011;29263;48.172;11.484;2022-07-17T10:36:33;4.45;;;1.05;;
43664;SDS011;29263;48.172;11.484;2022-07-17T10:39:36;1.05;;;0.77;;
43664;SDS011;29263;48.172;11.484;2022-07-17T10:41:59;1.38;;;0.95;;
43664;SDS011;29263;48.172;11.484;2022-07-17T10:44:29;1.20;;;0.75;;
43664;SDS011;29263;48.172;11.484;2022-07-17T10:46:57;3.10;;;0.93;;
43664;SDS011;29263;48.172;11.484;2022-07-17T10:49:23;1.73;;;1.00;;
43664;SDS011;29263;48.172;11.484;2022-07-17T10:51:50;2.97;;;0.85;;
43664;SDS011;29263;48.172;11.484;2022-07-17T10:54:16;2.95;;;1.23;;
43664;SDS011;29263;48.172;11.484;2022-07-17T10:56:42;3.17;;;0.80;;
43664;SDS011;29263;48.172;11.484;2022-07-17T10:59:11;1.85;;;0.80;;
43664;SDS011;29263;48.172;11.484;2022-07-17T11:01:37;1.70;;;0.90;;
43664;SDS011;29263;48.172;11.484;2022-07-17T11:04:23;1.25;;;0.90;;
43664;SDS011;29263;48.172;11.484;2022-07-17T11:07:09;1.58;;;0.90;;
43664;SDS011;29263;48.172;11.484;2022-07-17T11:09:34;0.80;;;0.80;;
43664;SDS011;29263;48.172;11.484;2022-07-17T11:12:00;2.10;;;0.98;;
43664;SDS011;29263;48.172;11.484;2022-07-17T11:14:26;2.13;;;1.02;;
43664;SDS011;29263;48.172;11.484;2022-07-17T11:21:50;1.88;;;1.20;;
43664;SDS011;29263;48.172;11.484;2022-07-17T11:24:17;1.23;;;0.80;;
43664;SDS011;29263;48.172;11.484;2022-07-17T11:26:43;1.88;;;1.02;;
43664;SDS011;29263;48.172;11.484;2022-07-17T11:29:09;1.15;;;0.90;;
43664;SDS011;29263;48.172;11.484;2022-07-17T11:31:35;1.92;;;0.80;;
43664;SDS011;29263;48.172;11.484;2022-07-17T11:34:03;2.60;;;1.20;;
43664;SDS011;29263;48.172;11.484;2022-07-17T11:36:41;2.15;;;1.00;;
43664;SDS011;29263;48.172;11.484;2022-07-17T11:39:09;3.42;;;1.10;;
43664;SDS011;29263;48.172;11.484;2022-07-17T11:41:40;3.50;;;1.30;;
43664;SDS011;29263;48.172;11.484;2022-07-17T11:44:11;2.45;;;1.00;;
43664;SDS011;29263;48.172;11.484;2022-07-17T11:46:40;2.15;;;1.10;;
43664;SDS011;29263;48.172;11.484;2022-07-17T11:49:07;4.10;;;1.17;;
43664;SDS011;29263;48.172;11.484;2022-07-17T11:51:42;3.03;;;1.10;;
43664;SDS011;29263;48.172;11.484;2022-07-17T11:54:17;2.53;;;0.95;;
43664;SDS011;29263;48.172;11.484;2022-07-17T11:56:50;2.78;;;1.02;;
43664;SDS011;29263;48.172;11.484;2022-07-17T11:59:31;1.15;;;0.80;;
43664;SDS011;29263;48.172;11.484;2022-07-17T12:02:06;1.27;;;0.88;;
43664;SDS011;29263;48.172;11.484;2022-07-17T12:07:41;1.00;;;0.82;;
43664;SDS011;29263;48.172;11.484;2022-07-17T12:10:37;2.25;;;0.80;;
43664;SDS011;29263;48.172;11.484;2022-07-17T12:13:04;1.13;;;0.90;;
43664;SDS011;29263;48.172;11.484;2022-07-17T12:16:01;2.45;;;0.88;;
43664;SDS011;29263;48.172;11.484;2022-07-17T12:18:27;0.88;;;0.70;;
43664;SDS011;29263;48.172;11.484;2022-07-17T12:24:23;1.00;;;0.82;;
43664;SDS011;29263;48.172;11.484;2022-07-17T12:26:59;1.35;;;1.00;;
43664;SDS011;29263;48.172;11.484;2022-07-17T12:29:36;1.67;;;1.02;;
43664;SDS011;29263;48.172;11.484;2022-07-17T12:32:12;1.50;;;0.90;;
43664;SDS011;29263;48.172;11.484;2022-07-17T12:34:47;2.78;;;0.95;;
43664;SDS011;29263;48.172;11.484;2022-07-17T12:37:18;2.70;;;0.90;;
43664;SDS011;29263;48.172;11.484;2022-07-17T12:39:46;3.05;;;1.08;;
43664;SDS011;29263;48.172;11.484;2022-07-17T12:42:14;3.45;;;0.88;;
43664;SDS011;29263;48.172;11.484;2022-07-17T12:44:40;1.42;;;0.90;;
43664;SDS011;29263;48.172;11.484;2022-07-17T12:47:07;1.15;;;0.85;;
43664;SDS011;29263;48.172;11.484;2022-07-17T12:50:00;1.00;;;1.00;;
43664;SDS011;29263;48.172;11.484;2022-07-17T12:59:03;1.90;;;0.93;;
43664;SDS011;29263;48.172;11.484;2022-07-17T13:01:29;1.55;;;0.80;;
43664;SDS011;29263;48.172;11.484;2022-07-17T13:13:34;1.33;;;0.90;;
43664;SDS011;29263;48.172;11.484;2022-07-17T13:20:14;2.20;;;0.90;;
43664;SDS011;29263;48.172;11.484;2022-07-17T13:22:48;3.08;;;0.70;;
43664;SDS011;29263;48.172;11.484;2022-07-17T13:25:52;1.98;;;0.80;;
43664;SDS011;29263;48.172;11.484;2022-07-17T13:29:13;3.65;;;1.00;;
43664;SDS011;29263;48.172;11.484;2022-07-17T13:31:58;1.55;;;0.93;;
43664;SDS011;29263;48.172;11.484;2022-07-17T13:34:41;1.38;;;0.80;;
43664;SDS011;29263;48.172;11.484;2022-07-17T13:37:25;2.00;;;0.90;;
43664;SDS011;29263;48.172;11.484;2022-07-17T13:50:12;0.93;;;0.60;;
43664;SDS011;29263;48.172;11.484;2022-07-17T13:52:56;3.45;;;1.00;;
43664;SDS011;29263;48.172;11.484;2022-07-17T13:58:52;1.35;;;0.70;;
43664;SDS011;29263;48.172;11.484;2022-07-17T14:01:21;2.30;;;0.77;;
43664;SDS011;29263;48.172;11.484;2022-07-17T14:14:07;1.15;;;0.77;;
43664;SDS011;29263;48.172;11.484;2022-07-17T14:20:14;1.90;;;0.88;;
43664;SDS011;29263;48.172;11.484;2022-07-17T14:22:39;1.23;;;0.90;;
43664;SDS011;29263;48.172;11.484;2022-07-17T14:25:20;1.38;;;0.80;;
43664;SDS011;29263;48.172;11.484;2022-07-17T14:27:46;0.70;;;0.70;;
43664;SDS011;29263;48.172;11.484;2022-07-17T14:30:12;2.22;;;0.80;;
43664;SDS011;29263;48.172;11.484;2022-07-17T14:32:38;2.35;;;0.90;;
43664;SDS011;29263;48.172;11.484;2022-07-17T14:35:04;4.03;;;1.85;;
43664;SDS011;29263;48.172;11.484;2022-07-17T14:37:30;0.98;;;0.80;;
43664;SDS011;29263;48.172;11.484;2022-07-17T14:39:57;7.72;;;1.08;;
43664;SDS011;29263;48.172;11.484;2022-07-17T14:42:24;3.33;;;0.60;;
43664;SDS011;29263;48.172;11.484;2022-07-17T14:44:49;1.30;;;0.80;;
43664;SDS011;29263;48.172;11.484;2022-07-17T14:47:15;1.23;;;0.80;;
43664;SDS011;29263;48.172;11.484;2022-07-17T14:49:42;4.65;;;0.80;;
43664;SDS011;29263;48.172;11.484;2022-07-17T14:52:09;1.17;;;0.63;;
43664;SDS011;29263;48.172;11.484;2022-07-17T14:54:35;2.65;;;0.90;;
43664;SDS011;29263;48.172;11.484;2022-07-17T14:57:01;1.13;;;0.82;;
43664;SDS011;29263;48.172;11.484;2022-07-17T14:59:27;3.20;;;0.88;;
43664;SDS011;29263;48.172;11.484;2022-07-17T15:01:52;2.35;;;0.70;;
43664;SDS011;29263;48.172;11.484;2022-07-17T15:04:19;0.98;;;0.70;;
43664;SDS011;29263;48.172;11.484;2022-07-17T15:06:49;1.48;;;0.80;;
43664;SDS011;29263;48.172;11.484;2022-07-17T15:09:15;2.25;;;0.70;;
43664;SDS011;29263;48.172;11.484;2022-07-17T15:12:12;2.97;;;0.70;;
43664;SDS011;29263;48.172;11.484;2022-07-17T15:14:38;3.03;;;0.88;;
43664;SDS011;29263;48.172;11.484;2022-07-17T15:17:04;4.63;;;0.90;;
43664;SDS011;29263;48.172;11.484;2022-07-17T15:19:31;1.52;;;0.75;;
43664;SDS011;29263;48.172;11.484;2022-07-17T15:22:00;1.35;;;0.68;;
43664;SDS011;29263;48.172;11.484;2022-07-17T15:24:31;1.60;;;0.68;;
43664;SDS011;29263;48.172;11.484;2022-07-17T15:27:17;1.42;;;0.77;;
43664;SDS011;29263;48.172;11.484;2022-07-17T15:30:17;2.22;;;0.90;;
43664;SDS011;29263;48.172;11.484;2022-07-17T15:32:43;1.08;;;0.80;;
43664;SDS011;29263;48.172;11.484;2022-07-17T15:35:08;1.00;;;0.65;;
43664;SDS011;29263;48.172;11.484;2022-07-17T15:37:34;0.90;;;0.85;;
43664;SDS011;29263;48.172;11.484;2022-07-17T15:40:00;1.05;;;0.70;;
43664;SDS011;29263;48.172;11.484;2022-07-17T15:42:26;1.17;;;0.73;;
43664;SDS011;29263;48.172;11.484;2022-07-17T15:44:54;2.03;;;0.70;;
43664;SDS011;29263;48.172;11.484;2022-07-17T15:48:09;0.52;;;0.52;;
43664;SDS011;29263;48.172;11.484;2022-07-17T15:50:36;0.60;;;0.50;;
43664;SDS011;29263;48.172;11.484;2022-07-17T15:53:52;2.28;;;0.90;;
43664;SDS011;29263;48.172;11.484;2022-07-17T15:56:28;1.75;;;0.60;;
43664;SDS011;29263;48.172;11.484;2022-07-17T15:59:15;1.65;;;0.77;;
43664;SDS011;29263;48.172;11.484;2022-07-17T16:01:43;2.10;;;0.95;;
43664;SDS011;29263;48.172;11.484;2022-07-17T16:04:49;1.60;;;0.90;;
